Terminal Aerodrome Forecast
Issued by NWS

Home | Current Version | Previous Version | Text Only | Print | Product List | Glossary On
Versions: 1 2 3 4 5 6 7 8 9 10 11 12 13 14 15 16
000
FTUS45 KABQ 062300 RRA
TAFFMN
TAF
KFMN 062340Z 0700/0724 24009G16KT P6SM VCSH SCT080 BKN110
      TEMPO 0700/0703 VRB17G28KT -TSRA BKN050CB BKN100
     FM070300 25007KT P6SM SCT070 SCT120
     FM070800 09006KT P6SM SCT035 SCT120
     FM071800 20010G17KT P6SM FEW080 SCT120=

USA.gov is the U.S. government's official web portal to all federal, state and local government web resources and services.